Time;durP1;ratioP1;P1;durP2;ratioP2;P2;SDS_P1;SDS_P2;PMS_P1;PMS_P2;Temp;Humidity;BMP_temperature;BMP_pressure;BME280_temperature;BME280_humidity;BME280_pressure;Samples;Min_cycle;Max_cycle;Signal;HPM_P1;HPM_P2
2021/12/28 00:00:24;;;;;;;4.88;4.13;;;9.40;99.90;;;;;;4975856;28;20312;-81
2021/12/28 00:02:50;;;;;;;4.32;3.92;;;9.40;99.90;;;;;;4957551;28;20231;-79
2021/12/28 00:05:20;;;;;;;5.10;4.60;;;9.40;99.90;;;;;;4976262;28;20210;-80
2021/12/28 00:07:46;;;;;;;4.75;3.80;;;9.40;99.90;;;;;;4972382;28;20632;-80
2021/12/28 00:10:14;;;;;;;4.30;3.90;;;9.40;99.90;;;;;;4956543;28;20179;-80
2021/12/28 00:12:41;;;;;;;4.57;4.18;;;9.40;99.90;;;;;;4972553;28;20192;-80
2021/12/28 00:17:59;;;;;;;5.75;3.13;;;9.40;99.90;;;;;;4972678;28;20211;-81
2021/12/28 00:20:38;;;;;;;6.38;4.22;;;9.40;99.90;;;;;;4972929;28;20609;-81
2021/12/28 00:23:17;;;;;;;4.63;4.13;;;9.40;99.90;;;;;;4973192;28;20203;-81
2021/12/28 00:25:45;;;;;;;4.32;3.00;;;9.40;99.90;;;;;;4975537;28;20211;-80
2021/12/28 00:28:11;;;;;;;4.93;4.53;;;9.40;99.90;;;;;;4974849;28;20222;-80
2021/12/28 00:30:37;;;;;;;6.63;3.37;;;9.40;99.90;;;;;;4983245;28;20163;-81
2021/12/28 00:33:04;;;;;;;4.15;3.60;;;9.40;99.90;;;;;;4984626;28;20204;-82
2021/12/28 00:35:33;;;;;;;6.10;4.25;;;9.30;99.90;;;;;;4992626;28;20200;-81
2021/12/28 00:38:00;;;;;;;5.00;3.78;;;9.40;99.90;;;;;;4975724;28;20203;-80
2021/12/28 00:40:27;;;;;;;5.88;4.60;;;9.40;99.90;;;;;;4976060;28;20187;-80
2021/12/28 00:42:53;;;;;;;7.60;4.60;;;9.40;99.90;;;;;;4997174;28;20180;-80
2021/12/28 00:45:19;;;;;;;4.30;3.90;;;9.40;99.90;;;;;;4976650;28;20623;-80
2021/12/28 00:47:49;;;;;;;3.30;3.00;;;9.40;99.90;;;;;;4975359;28;20182;-79
2021/12/28 00:50:17;;;;;;;3.70;3.40;;;9.40;99.90;;;;;;4976011;28;20559;-80
2021/12/28 00:52:43;;;;;;;5.38;4.13;;;9.40;99.90;;;;;;4977054;28;20175;-80
2021/12/28 00:55:11;;;;;;;6.00;4.28;;;9.40;99.90;;;;;;4976706;28;20278;-80
2021/12/28 00:57:37;;;;;;;4.25;3.78;;;9.40;99.90;;;;;;4958792;28;20175;-80
2021/12/28 01:00:06;;;;;;;5.32;3.90;;;9.40;99.90;;;;;;4977242;28;20773;-81
2021/12/28 01:02:32;;;;;;;4.93;3.65;;;9.50;99.90;;;;;;4977998;28;20648;-81
2021/12/28 01:04:57;;;;;;;8.30;3.73;;;9.50;99.90;;;;;;4977081;28;20203;-81
2021/12/28 01:07:23;;;;;;;4.17;3.57;;;9.50;99.90;;;;;;4976493;28;20167;-81
2021/12/28 01:09:49;;;;;;;6.60;3.23;;;9.50;99.90;;;;;;4976412;28;20206;-81
2021/12/28 01:12:15;;;;;;;7.20;3.17;;;9.50;99.90;;;;;;4976476;28;20574;-81
2021/12/28 01:14:41;;;;;;;4.47;3.23;;;9.50;99.90;;;;;;4975989;28;20626;-81
2021/12/28 01:17:07;;;;;;;12.17;4.47;;;9.50;99.90;;;;;;4976867;28;20629;-82
2021/12/28 01:19:32;;;;;;;5.63;3.20;;;9.50;99.90;;;;;;4979492;28;20947;-80
2021/12/28 01:22:01;;;;;;;3.33;2.80;;;9.50;99.90;;;;;;4976283;28;20218;-82
2021/12/28 01:24:27;;;;;;;9.70;4.20;;;9.60;99.90;;;;;;4990201;28;20678;-81
2021/12/28 01:26:53;;;;;;;7.20;2.65;;;9.60;99.90;;;;;;4975231;28;20214;-81
2021/12/28 01:29:19;;;;;;;5.97;2.97;;;9.60;99.90;;;;;;4990808;28;20570;-81
2021/12/28 01:31:45;;;;;;;6.97;2.33;;;9.60;99.90;;;;;;4975792;28;20171;-81
2021/12/28 01:34:10;;;;;;;5.70;2.73;;;9.70;99.90;;;;;;4975467;28;20218;-81
2021/12/28 01:36:37;;;;;;;4.40;2.17;;;9.70;99.90;;;;;;4973838;28;20583;-81
2021/12/28 01:39:05;;;;;;;9.52;2.47;;;9.80;99.90;;;;;;4974580;28;20696;-81
2021/12/28 01:41:32;;;;;;;6.22;2.85;;;9.80;99.90;;;;;;4975225;28;20172;-81
2021/12/28 01:44:01;;;;;;;5.80;2.80;;;9.90;99.90;;;;;;4975311;28;20202;-80
2021/12/28 01:46:27;;;;;;;3.22;1.83;;;9.90;99.90;;;;;;4973338;28;20687;-81
2021/12/28 01:48:53;;;;;;;4.13;2.13;;;10.00;99.90;;;;;;4975590;28;20163;-80
2021/12/28 01:51:21;;;;;;;8.37;2.20;;;10.00;99.90;;;;;;4975811;28;20629;-80
2021/12/28 01:53:50;;;;;;;3.85;2.42;;;10.00;99.90;;;;;;4974521;28;20172;-82
2021/12/28 01:56:22;;;;;;;8.43;3.42;;;10.00;99.90;;;;;;4977123;28;20271;-82
2021/12/28 01:58:49;;;;;;;7.85;3.00;;;10.00;99.90;;;;;;4979564;28;20172;-80
2021/12/28 02:01:16;;;;;;;6.97;2.97;;;10.00;99.90;;;;;;4974366;28;20239;-80
2021/12/28 02:03:45;;;;;;;7.57;2.63;;;10.00;99.90;;;;;;4974722;28;20265;-81
2021/12/28 02:06:11;;;;;;;6.28;3.72;;;10.00;99.90;;;;;;4974160;28;20278;-81
2021/12/28 02:08:38;;;;;;;5.18;2.67;;;9.90;99.90;;;;;;4973175;28;20693;-81
2021/12/28 02:11:05;;;;;;;7.25;2.50;;;9.90;99.90;;;;;;4973353;28;20230;-81
2021/12/28 02:13:31;;;;;;;4.97;2.80;;;9.90;99.90;;;;;;4974096;28;20203;-80
2021/12/28 02:15:58;;;;;;;10.33;2.30;;;9.90;99.90;;;;;;4973517;28;20246;-81
2021/12/28 02:18:27;;;;;;;4.45;2.20;;;9.90;99.90;;;;;;4974123;28;20575;-81
2021/12/28 02:20:54;;;;;;;8.20;2.28;;;9.90;99.90;;;;;;4974379;28;20175;-81
2021/12/28 02:23:20;;;;;;;4.40;2.33;;;9.90;99.90;;;;;;4988440;28;20176;-81
2021/12/28 02:25:46;;;;;;;18.08;3.53;;;9.90;99.90;;;;;;4973512;28;20207;-80
2021/12/28 02:28:13;;;;;;;4.87;2.70;;;9.90;99.90;;;;;;4973980;28;20170;-80
2021/12/28 02:30:42;;;;;;;5.93;2.63;;;9.90;99.90;;;;;;4974309;28;20334;-81
2021/12/28 02:33:09;;;;;;;7.90;2.45;;;10.00;99.90;;;;;;4978697;28;20247;-81
2021/12/28 02:35:35;;;;;;;7.43;2.58;;;10.00;99.90;;;;;;4989181;28;20202;-81
2021/12/28 02:38:03;;;;;;;6.65;2.58;;;10.00;99.90;;;;;;4973261;28;20695;-81
2021/12/28 02:40:32;;;;;;;6.35;2.65;;;10.00;99.90;;;;;;4973605;28;20175;-81
2021/12/28 02:42:59;;;;;;;6.93;1.60;;;10.00;99.90;;;;;;4973467;28;20233;-81
2021/12/28 02:45:50;;;;;;;6.20;2.03;;;10.10;99.90;;;;;;4973836;28;20219;-80
2021/12/28 02:48:16;;;;;;;9.27;2.75;;;10.10;99.90;;;;;;4965512;28;20184;-80
2021/12/28 02:50:48;;;;;;;7.93;2.10;;;10.10;99.90;;;;;;4973807;28;20202;-80
2021/12/28 02:53:15;;;;;;;9.57;3.97;;;10.20;99.90;;;;;;4972291;28;20175;-81
2021/12/28 02:55:41;;;;;;;9.75;2.55;;;10.20;99.90;;;;;;4973617;28;20193;-81
2021/12/28 02:58:11;;;;;;;8.25;2.65;;;10.20;99.90;;;;;;4988663;28;20188;-81
2021/12/28 03:00:44;;;;;;;6.72;2.42;;;10.30;99.90;;;;;;4973377;28;20176;-80
2021/12/28 03:03:19;;;;;;;8.40;2.25;;;10.30;99.90;;;;;;4972854;28;20266;-80
2021/12/28 03:05:47;;;;;;;8.90;2.25;;;10.40;99.90;;;;;;4972754;28;20199;-80
2021/12/28 03:08:15;;;;;;;6.97;2.65;;;10.40;99.90;;;;;;4973442;28;20531;-81
2021/12/28 03:10:41;;;;;;;7.80;2.55;;;10.40;99.90;;;;;;4978958;28;20203;-81
2021/12/28 03:13:12;;;;;;;11.75;2.60;;;10.50;99.90;;;;;;4971976;28;20182;-80
2021/12/28 03:15:38;;;;;;;9.07;2.92;;;10.50;99.90;;;;;;4972577;28;20207;-80
2021/12/28 03:18:04;;;;;;;6.50;2.20;;;10.40;99.90;;;;;;4971205;28;20282;-79
2021/12/28 03:20:29;;;;;;;10.00;3.07;;;10.30;99.90;;;;;;4987829;28;20606;-79
2021/12/28 03:22:55;;;;;;;10.20;2.80;;;10.40;99.90;;;;;;4971164;28;20168;-79
2021/12/28 03:25:21;;;;;;;14.37;4.00;;;10.40;99.90;;;;;;4971437;28;20207;-78
2021/12/28 03:27:47;;;;;;;10.23;2.33;;;10.40;99.90;;;;;;4972410;28;20195;-79
2021/12/28 03:30:15;;;;;;;10.00;1.97;;;10.30;99.90;;;;;;4971743;28;20164;-79
2021/12/28 03:32:41;;;;;;;13.38;1.90;;;10.30;99.90;;;;;;4972655;28;20171;-79
2021/12/28 03:35:08;;;;;;;7.90;2.63;;;10.30;99.90;;;;;;4973219;28;20191;-79
2021/12/28 03:37:35;;;;;;;8.23;2.55;;;10.40;99.90;;;;;;4972188;28;20774;-79
2021/12/28 03:40:04;;;;;;;17.42;3.38;;;10.40;99.90;;;;;;4973143;28;20262;-79
2021/12/28 03:42:30;;;;;;;8.20;2.63;;;10.30;99.90;;;;;;4972770;28;20259;-79
2021/12/28 03:44:56;;;;;;;12.20;3.60;;;10.30;99.90;;;;;;4972935;28;20747;-79
2021/12/28 03:47:22;;;;;;;11.67;3.20;;;10.40;99.90;;;;;;4978357;28;20163;-80
2021/12/28 03:49:47;;;;;;;16.27;4.00;;;10.40;99.90;;;;;;4971848;28;20180;-80
2021/12/28 03:52:13;;;;;;;11.20;2.90;;;10.40;99.90;;;;;;4973218;28;20176;-80
2021/12/28 03:54:39;;;;;;;19.30;2.93;;;10.40;99.90;;;;;;4972661;28;20195;-80
2021/12/28 03:57:05;;;;;;;8.23;2.43;;;10.40;99.90;;;;;;4987586;28;20574;-80
2021/12/28 03:59:31;;;;;;;6.90;2.00;;;10.40;99.90;;;;;;4973068;28;20168;-80
2021/12/28 04:01:57;;;;;;;11.27;2.33;;;10.40;99.90;;;;;;4976792;28;20668;-80
2021/12/28 04:04:24;;;;;;;10.13;2.70;;;10.40;99.90;;;;;;4976042;28;20330;-79
2021/12/28 04:06:50;;;;;;;12.13;2.78;;;10.40;99.90;;;;;;4975978;28;20570;-79
2021/12/28 04:09:23;;;;;;;9.47;2.47;;;10.40;99.90;;;;;;4976784;28;20234;-79
2021/12/28 04:11:49;;;;;;;15.65;3.28;;;10.40;99.90;;;;;;4976384;28;20570;-78
2021/12/28 04:14:15;;;;;;;12.43;3.83;;;10.40;99.90;;;;;;4975631;28;20238;-78
2021/12/28 04:16:41;;;;;;;7.23;2.20;;;10.50;99.90;;;;;;4975573;28;20171;-79
2021/12/28 04:19:07;;;;;;;12.38;2.75;;;10.50;99.90;;;;;;4975882;28;20574;-79
2021/12/28 04:21:34;;;;;;;12.20;3.30;;;10.50;99.90;;;;;;4975908;28;20176;-78
2021/12/28 04:24:01;;;;;;;13.02;2.40;;;10.50;99.90;;;;;;4981225;28;20278;-79
2021/12/28 04:26:28;;;;;;;9.60;2.33;;;10.50;99.90;;;;;;4975413;28;20184;-79
2021/12/28 04:28:55;;;;;;;7.65;3.05;;;10.50;99.90;;;;;;4976010;28;20576;-79
2021/12/28 04:31:21;;;;;;;9.65;2.95;;;10.50;99.90;;;;;;4975738;28;20544;-79
2021/12/28 04:33:46;;;;;;;15.93;4.27;;;10.50;99.90;;;;;;4975562;28;20176;-79
2021/12/28 04:36:15;;;;;;;8.10;2.67;;;10.50;99.90;;;;;;4975036;28;20598;-78
2021/12/28 04:38:43;;;;;;;8.82;2.28;;;10.60;99.90;;;;;;4975544;28;20969;-78
2021/12/28 04:41:10;;;;;;;16.35;3.00;;;10.60;99.90;;;;;;4975595;28;20254;-78
2021/12/28 04:43:37;;;;;;;8.80;2.80;;;10.60;99.90;;;;;;4974982;28;20179;-78
2021/12/28 04:46:05;;;;;;;9.40;2.55;;;10.60;99.90;;;;;;4975239;28;20203;-79
2021/12/28 04:48:31;;;;;;;9.65;2.30;;;10.60;99.90;;;;;;4975020;28;20218;-78
2021/12/28 04:50:57;;;;;;;7.47;2.85;;;10.60;99.90;;;;;;4975718;28;20304;-79
2021/12/28 04:53:24;;;;;;;12.37;2.97;;;10.60;99.90;;;;;;4975261;28;20255;-79
2021/12/28 04:55:51;;;;;;;12.63;2.50;;;10.60;99.90;;;;;;4973869;28;20207;-79
2021/12/28 04:58:18;;;;;;;13.57;2.88;;;10.60;99.90;;;;;;4975721;28;20168;-78
2021/12/28 05:00:47;;;;;;;13.18;4.18;;;10.60;99.90;;;;;;4980722;28;20549;-79
2021/12/28 05:03:14;;;;;;;12.00;3.30;;;10.60;99.90;;;;;;4975366;28;20180;-79
2021/12/28 05:05:43;;;;;;;12.18;2.72;;;10.60;99.90;;;;;;4975376;28;20217;-79
2021/12/28 05:08:10;;;;;;;13.02;3.00;;;10.60;99.90;;;;;;4975420;28;20168;-79
2021/12/28 05:10:36;;;;;;;13.02;3.35;;;10.60;99.90;;;;;;4975118;28;20183;-79
2021/12/28 05:13:03;;;;;;;11.23;4.50;;;10.60;99.90;;;;;;4975119;28;20171;-78
2021/12/28 05:15:29;;;;;;;14.63;3.65;;;10.60;99.90;;;;;;4975333;28;20611;-78
2021/12/28 05:17:55;;;;;;;12.03;2.90;;;10.60;99.90;;;;;;4974808;28;20174;-79
2021/12/28 05:20:21;;;;;;;10.80;2.80;;;10.60;99.90;;;;;;4975075;28;20578;-79
2021/12/28 05:22:46;;;;;;;11.30;3.13;;;10.60;99.90;;;;;;4974877;28;20175;-79
2021/12/28 05:25:12;;;;;;;11.57;3.37;;;10.60;99.90;;;;;;4974922;28;20710;-79
2021/12/28 05:27:38;;;;;;;10.70;3.63;;;10.60;99.90;;;;;;4974235;28;20171;-79
2021/12/28 05:30:06;;;;;;;15.17;4.37;;;10.60;99.90;;;;;;4975055;28;20171;-79
2021/12/28 05:32:32;;;;;;;14.23;4.05;;;10.60;99.90;;;;;;4989120;28;20191;-79
2021/12/28 05:34:58;;;;;;;12.93;3.63;;;10.60;99.90;;;;;;4974691;28;20203;-79
2021/12/28 05:37:24;;;;;;;14.00;5.43;;;10.60;99.90;;;;;;4979589;28;20619;-78
2021/12/28 05:39:50;;;;;;;17.03;4.57;;;10.60;99.90;;;;;;4974854;28;20575;-78
2021/12/28 05:42:16;;;;;;;13.50;4.30;;;10.60;99.90;;;;;;4974239;28;20570;-79
2021/12/28 05:44:41;;;;;;;10.03;3.50;;;10.60;99.90;;;;;;4989325;28;20671;-79
2021/12/28 05:47:07;;;;;;;11.50;5.00;;;10.60;99.90;;;;;;4973874;28;20230;-79
2021/12/28 05:49:33;;;;;;;11.17;3.90;;;10.60;99.90;;;;;;4974708;28;20707;-79
2021/12/28 05:51:59;;;;;;;11.35;5.60;;;10.60;99.90;;;;;;4974500;28;20607;-79
2021/12/28 05:54:24;;;;;;;8.97;3.87;;;10.60;99.90;;;;;;4973692;28;20180;-79
2021/12/28 05:56:50;;;;;;;11.03;5.13;;;10.60;99.90;;;;;;4973851;28;20593;-79
2021/12/28 05:59:16;;;;;;;12.93;4.43;;;10.60;99.90;;;;;;4973136;28;20175;-80
2021/12/28 06:01:42;;;;;;;9.97;4.30;;;10.60;99.90;;;;;;4974158;28;20579;-76
2021/12/28 06:04:08;;;;;;;14.83;6.07;;;10.60;99.90;;;;;;4973617;28;20290;-76
2021/12/28 06:06:34;;;;;;;14.40;4.53;;;10.60;99.90;;;;;;4973373;28;20595;-76
2021/12/28 06:08:59;;;;;;;9.47;3.57;;;10.70;99.90;;;;;;4973969;28;20649;-76
2021/12/28 06:11:25;;;;;;;11.03;4.20;;;10.70;99.90;;;;;;4972300;28;20587;-76
2021/12/28 06:13:51;;;;;;;10.07;4.30;;;10.70;99.90;;;;;;4975950;28;20557;-76
2021/12/28 06:16:17;;;;;;;9.93;3.67;;;10.70;99.90;;;;;;4975846;28;20668;-76
2021/12/28 06:18:43;;;;;;;10.27;3.65;;;10.70;99.90;;;;;;4973356;28;20614;-76
2021/12/28 06:21:09;;;;;;;8.90;3.63;;;10.70;99.90;;;;;;4973590;28;20612;-76
2021/12/28 06:23:35;;;;;;;9.53;3.40;;;10.80;99.90;;;;;;4971297;28;20215;-76
2021/12/28 06:26:02;;;;;;;15.27;4.45;;;10.70;99.90;;;;;;4972632;28;20634;-76
2021/12/28 06:28:28;;;;;;;6.55;3.67;;;10.70;99.90;;;;;;4972776;28;20223;-76
2021/12/28 06:30:54;;;;;;;8.40;3.90;;;10.80;99.90;;;;;;4973503;28;20171;-76
2021/12/28 06:33:24;;;;;;;7.10;2.73;;;10.70;99.90;;;;;;4973371;28;20199;-76
2021/12/28 06:35:50;;;;;;;9.60;4.45;;;10.80;99.90;;;;;;4968859;28;20829;-77
2021/12/28 06:38:17;;;;;;;10.05;5.40;;;10.70;99.90;;;;;;4972571;28;20558;-76
2021/12/28 06:40:43;;;;;;;13.00;3.75;;;10.70;99.90;;;;;;4973194;28;20246;-76
2021/12/28 06:43:09;;;;;;;7.75;3.00;;;10.80;99.90;;;;;;4972348;28;20172;-76
2021/12/28 06:45:35;;;;;;;9.60;3.78;;;10.80;99.90;;;;;;4971542;28;20594;-76
2021/12/28 06:48:02;;;;;;;9.00;3.33;;;10.80;99.90;;;;;;4972218;28;20214;-75
2021/12/28 06:50:28;;;;;;;9.10;3.45;;;10.90;99.90;;;;;;4973287;28;20215;-75
2021/12/28 06:52:54;;;;;;;10.03;3.47;;;10.90;99.90;;;;;;4976509;28;20175;-76
2021/12/28 06:55:20;;;;;;;5.03;2.50;;;11.00;99.90;;;;;;4971674;28;20599;-76
2021/12/28 06:57:46;;;;;;;10.77;3.77;;;10.90;99.90;;;;;;4972537;28;20218;-76
2021/12/28 07:00:16;;;;;;;10.10;2.58;;;10.90;99.90;;;;;;4971089;28;20642;-75
2021/12/28 07:02:42;;;;;;;11.18;2.88;;;10.90;99.90;;;;;;4973107;28;20255;-76
2021/12/28 07:05:09;;;;;;;11.50;3.50;;;10.90;99.90;;;;;;4972221;28;20294;-76
2021/12/28 07:07:35;;;;;;;8.88;3.53;;;10.90;99.90;;;;;;4972053;28;20571;-75
2021/12/28 07:10:01;;;;;;;7.03;2.67;;;10.90;99.90;;;;;;4971056;28;20581;-76
2021/12/28 07:12:27;;;;;;;7.47;2.83;;;10.90;99.90;;;;;;4972291;28;20171;-76
2021/12/28 07:14:53;;;;;;;9.13;2.90;;;10.90;99.90;;;;;;4972490;28;21143;-76
2021/12/28 07:17:19;;;;;;;9.68;3.70;;;10.90;99.90;;;;;;4970788;28;20167;-76
2021/12/28 07:19:46;;;;;;;9.27;2.17;;;10.90;99.90;;;;;;4971979;28;20207;-76
2021/12/28 07:22:12;;;;;;;8.52;2.80;;;10.90;99.90;;;;;;4970543;28;21196;-75
2021/12/28 07:24:38;;;;;;;6.05;2.50;;;10.90;99.90;;;;;;4972192;28;20207;-75
2021/12/28 07:27:04;;;;;;;9.63;2.60;;;10.90;99.90;;;;;;4971766;28;20175;-76
2021/12/28 07:29:30;;;;;;;7.90;2.95;;;10.90;99.90;;;;;;4977880;28;20552;-76
2021/12/28 07:31:56;;;;;;;12.27;2.75;;;10.90;99.90;;;;;;4971235;28;20590;-76
2021/12/28 07:34:22;;;;;;;10.90;2.90;;;10.90;99.90;;;;;;4970831;28;20171;-76
2021/12/28 07:36:48;;;;;;;7.43;2.57;;;10.80;99.90;;;;;;4974808;28;20579;-76
2021/12/28 07:39:14;;;;;;;5.30;1.70;;;10.80;99.90;;;;;;4976055;28;20188;-75
2021/12/28 07:41:40;;;;;;;6.38;2.38;;;10.80;99.90;;;;;;4975049;28;20615;-76
2021/12/28 07:44:06;;;;;;;8.00;3.47;;;10.80;99.90;;;;;;4974512;28;20227;-75
2021/12/28 07:46:32;;;;;;;7.05;2.08;;;10.80;99.90;;;;;;4975657;28;20536;-75
2021/12/28 07:48:58;;;;;;;8.70;2.23;;;10.70;99.90;;;;;;4975106;28;20168;-76
2021/12/28 07:51:23;;;;;;;14.03;2.50;;;10.70;99.90;;;;;;4976272;28;21146;-75
2021/12/28 07:53:49;;;;;;;6.67;2.03;;;10.60;99.90;;;;;;4975761;28;20172;-75
2021/12/28 07:56:15;;;;;;;5.60;2.27;;;10.60;99.90;;;;;;4974714;28;20187;-76
2021/12/28 07:58:41;;;;;;;6.47;1.90;;;10.50;99.90;;;;;;4958755;28;20574;-76
2021/12/28 08:01:07;;;;;;;5.53;1.73;;;10.50;99.90;;;;;;4975608;28;20171;-76
2021/12/28 08:03:33;;;;;;;6.90;2.13;;;10.50;99.90;;;;;;4976098;28;20575;-76
2021/12/28 08:05:58;;;;;;;7.30;2.37;;;10.50;99.90;;;;;;4978537;28;20211;-76
2021/12/28 08:08:24;;;;;;;4.87;1.80;;;10.60;99.90;;;;;;4958721;28;20581;-75
2021/12/28 08:10:50;;;;;;;5.47;2.03;;;10.50;99.90;;;;;;4975576;28;20172;-75
2021/12/28 08:13:17;;;;;;;5.03;1.80;;;10.60;99.90;;;;;;4975630;28;20618;-75
2021/12/28 08:15:43;;;;;;;5.45;1.67;;;10.60;99.90;;;;;;4975924;28;20211;-75
2021/12/28 08:18:09;;;;;;;9.13;2.25;;;10.70;99.90;;;;;;5005027;28;20168;-74
2021/12/28 08:20:37;;;;;;;8.55;2.10;;;10.70;99.90;;;;;;4996227;28;20184;-76
2021/12/28 08:23:03;;;;;;;4.28;1.15;;;10.80;99.90;;;;;;4996820;28;20187;-75
2021/12/28 08:25:29;;;;;;;5.30;2.05;;;10.80;99.90;;;;;;4982099;28;20215;-76
2021/12/28 08:27:54;;;;;;;4.27;1.50;;;10.80;99.90;;;;;;4989790;28;20176;-75
2021/12/28 08:30:20;;;;;;;3.13;1.60;;;10.80;99.90;;;;;;4974399;28;20579;-76
2021/12/28 08:32:47;;;;;;;5.17;2.27;;;10.90;99.90;;;;;;4990282;28;20625;-76
2021/12/28 08:35:13;;;;;;;3.85;1.60;;;10.90;99.90;;;;;;4975206;28;20758;-76
2021/12/28 08:37:40;;;;;;;7.13;1.92;;;10.90;99.90;;;;;;4973837;28;20635;-76
2021/12/28 08:40:07;;;;;;;3.15;1.90;;;10.90;99.90;;;;;;4974815;28;20187;-75
2021/12/28 08:42:33;;;;;;;5.10;2.05;;;10.90;99.90;;;;;;4978193;28;20198;-75
2021/12/28 08:44:59;;;;;;;4.17;1.40;;;10.90;99.90;;;;;;4974306;28;20211;-75
2021/12/28 08:47:27;;;;;;;4.40;1.50;;;11.00;99.90;;;;;;4974472;28;20578;-75
2021/12/28 08:49:58;;;;;;;4.45;1.50;;;10.90;99.90;;;;;;4989988;28;20191;-75
2021/12/28 08:52:24;;;;;;;4.38;1.67;;;10.90;99.90;;;;;;4974763;28;20180;-76
2021/12/28 08:54:50;;;;;;;4.53;2.33;;;11.00;99.90;;;;;;4974623;28;20693;-80
2021/12/28 08:57:20;;;;;;;2.85;1.10;;;11.00;99.90;;;;;;4974022;28;20186;-80
2021/12/28 08:59:48;;;;;;;4.15;1.30;;;11.00;99.90;;;;;;4996710;28;20282;-81
2021/12/28 09:02:14;;;;;;;2.35;1.40;;;11.10;99.90;;;;;;4997688;28;20191;-81
2021/12/28 09:04:43;;;;;;;5.47;1.20;;;11.10;99.90;;;;;;4979636;28;20207;-79
2021/12/28 09:07:17;;;;;;;3.70;1.55;;;11.10;99.90;;;;;;4973964;28;20594;-79
2021/12/28 09:09:44;;;;;;;3.60;1.30;;;11.10;99.90;;;;;;4990511;28;20225;-79
2021/12/28 09:12:11;;;;;;;4.55;2.17;;;11.10;99.90;;;;;;4973841;28;20160;-79
2021/12/28 09:14:37;;;;;;;3.13;1.48;;;11.10;99.90;;;;;;4975315;28;20266;-80
2021/12/28 09:17:03;;;;;;;3.57;1.53;;;11.10;99.90;;;;;;4975636;28;20175;-79
2021/12/28 09:19:30;;;;;;;2.25;1.58;;;11.20;99.90;;;;;;4979336;28;20666;-79
2021/12/28 09:21:56;;;;;;;4.80;1.25;;;11.20;99.90;;;;;;4973397;28;20216;-79
2021/12/28 09:24:21;;;;;;;3.50;1.43;;;11.20;99.90;;;;;;4974344;28;20619;-79
2021/12/28 09:26:47;;;;;;;3.20;1.43;;;11.30;99.90;;;;;;4973118;28;20262;-78
2021/12/28 09:29:13;;;;;;;3.47;1.57;;;11.30;99.90;;;;;;4975127;28;20210;-79
2021/12/28 09:31:39;;;;;;;4.43;1.80;;;11.30;99.90;;;;;;4974777;28;20171;-79
2021/12/28 09:34:05;;;;;;;1.80;1.53;;;11.40;99.90;;;;;;4973705;28;20172;-78
2021/12/28 09:36:31;;;;;;;6.20;1.50;;;11.40;99.90;;;;;;4973269;28;20191;-79
2021/12/28 09:38:56;;;;;;;4.37;1.93;;;11.50;99.90;;;;;;4973053;28;20235;-79
2021/12/28 09:41:22;;;;;;;3.57;1.40;;;11.40;99.90;;;;;;4974121;28;20174;-79
2021/12/28 09:43:48;;;;;;;2.63;1.80;;;11.50;99.90;;;;;;4972485;28;20526;-79
2021/12/28 09:46:15;;;;;;;1.83;1.20;;;11.50;99.90;;;;;;4972002;28;20623;-79
2021/12/28 09:48:41;;;;;;;3.08;1.23;;;11.50;99.90;;;;;;4972817;28;20171;-78
2021/12/28 09:51:07;;;;;;;2.30;1.27;;;11.50;99.90;;;;;;4956173;28;20172;-80
2021/12/28 09:53:33;;;;;;;2.30;1.52;;;11.50;99.90;;;;;;4972845;28;20570;-79
2021/12/28 09:55:59;;;;;;;6.03;2.50;;;11.50;99.90;;;;;;4976998;28;20223;-80
2021/12/28 09:58:25;;;;;;;3.20;1.93;;;11.50;99.90;;;;;;4956915;28;20180;-79
2021/12/28 10:00:51;;;;;;;2.50;1.70;;;11.50;99.90;;;;;;4972956;28;20974;-80
2021/12/28 10:03:17;;;;;;;3.80;2.13;;;11.50;99.90;;;;;;4973674;28;20591;-80
2021/12/28 10:05:43;;;;;;;2.23;1.33;;;11.50;99.90;;;;;;4971990;28;20849;-79
2021/12/28 10:08:09;;;;;;;1.95;1.10;;;11.50;99.90;;;;;;4988113;28;20571;-79
2021/12/28 10:10:41;;;;;;;2.10;1.27;;;11.50;99.90;;;;;;4973780;28;20163;-79
2021/12/28 10:13:22;;;;;;;1.80;1.00;;;11.60;99.90;;;;;;4973853;28;20654;-79
2021/12/28 10:15:50;;;;;;;2.03;1.08;;;11.50;99.90;;;;;;4955194;28;20250;-79
2021/12/28 10:18:16;;;;;;;5.28;1.10;;;11.60;99.90;;;;;;4973571;28;20168;-77
2021/12/28 10:20:44;;;;;;;3.40;0.90;;;11.60;99.90;;;;;;4988068;28;20176;-78
2021/12/28 10:23:15;;;;;;;1.77;0.98;;;11.60;99.90;;;;;;4973258;28;20591;-79
2021/12/28 10:25:54;;;;;;;2.28;1.20;;;11.60;99.90;;;;;;4987898;28;20199;-79
2021/12/28 10:28:22;;;;;;;3.05;1.00;;;11.60;99.90;;;;;;4988537;28;20167;-81
2021/12/28 10:30:52;;;;;;;2.08;1.10;;;11.60;99.90;;;;;;4988568;28;20255;-83
2021/12/28 10:33:31;;;;;;;3.55;0.90;;;11.60;99.90;;;;;;4977530;28;20168;-83
2021/12/28 10:36:03;;;;;;;3.00;1.30;;;11.60;99.90;;;;;;4972537;28;20566;-82
2021/12/28 10:38:33;;;;;;;2.50;1.17;;;11.70;99.90;;;;;;4972899;28;20202;-82
2021/12/28 10:41:06;;;;;;;2.85;1.52;;;11.70;99.90;;;;;;4974169;28;20179;-82
2021/12/28 10:43:35;;;;;;;2.15;0.90;;;11.70;99.90;;;;;;4973437;28;20636;-85
2021/12/28 10:46:08;;;;;;;4.35;1.30;;;11.70;99.90;;;;;;4971284;28;20288;-82
2021/12/28 10:48:39;;;;;;;2.05;1.10;;;11.80;99.90;;;;;;4973303;28;20172;-82
2021/12/28 10:51:10;;;;;;;2.30;0.93;;;11.80;99.90;;;;;;4973203;28;20600;-82
2021/12/28 10:54:06;;;;;;;2.38;1.17;;;11.90;99.90;;;;;;4973208;28;20178;-81
2021/12/28 10:56:31;;;;;;;4.30;1.27;;;11.90;99.90;;;;;;4972498;28;20187;-82
2021/12/28 10:58:57;;;;;;;2.30;1.03;;;11.90;99.90;;;;;;4972404;28;20170;-82
2021/12/28 11:01:26;;;;;;;5.63;1.02;;;11.90;99.90;;;;;;4972571;28;20175;-82
2021/12/28 11:03:56;;;;;;;2.00;1.30;;;11.90;99.90;;;;;;4972148;28;20191;-81
2021/12/28 11:06:30;;;;;;;4.03;1.65;;;12.00;99.90;;;;;;4986815;28;20215;-81
2021/12/28 11:09:15;;;;;;;3.25;1.20;;;12.00;99.90;;;;;;4973483;28;20181;-82
2021/12/28 11:11:42;;;;;;;3.05;1.00;;;12.10;99.90;;;;;;4974998;28;20513;-81
2021/12/28 11:14:10;;;;;;;1.83;1.25;;;12.10;99.90;;;;;;4990211;28;20180;-80
2021/12/28 11:16:37;;;;;;;1.77;1.02;;;12.20;99.90;;;;;;4972081;28;20203;-81
2021/12/28 11:19:09;;;;;;;1.80;1.00;;;12.30;99.90;;;;;;4972480;28;20211;-81
2021/12/28 11:21:41;;;;;;;2.13;1.00;;;12.40;99.90;;;;;;4972354;28;20920;-81
2021/12/28 11:24:13;;;;;;;2.47;1.00;;;12.50;99.90;;;;;;4972070;28;20196;-81
2021/12/28 11:26:44;;;;;;;1.77;1.10;;;12.60;99.90;;;;;;4988908;28;20608;-82
2021/12/28 11:31:43;;;;;;;2.13;1.40;;;12.70;99.90;;;;;;4993105;28;20214;-74
2021/12/28 11:34:13;;;;;;;3.63;1.70;;;12.70;99.90;;;;;;4991544;28;20598;-73
2021/12/28 11:36:43;;;;;;;3.00;1.85;;;12.80;99.90;;;;;;4990974;28;20256;-74
2021/12/28 11:39:12;;;;;;;6.97;4.93;;;12.80;99.90;;;;;;4991817;28;20179;-73
2021/12/28 11:41:40;;;;;;;5.90;4.23;;;12.80;99.90;;;;;;5006308;28;20588;-74
2021/12/28 11:44:06;;;;;;;3.20;1.80;;;12.80;99.90;;;;;;4980103;28;20688;-74
2021/12/28 11:50:21;;;;;;;1.90;1.20;;;12.90;99.90;;;;;;4974011;28;20626;-75
2021/12/28 11:52:47;;;;;;;1.83;1.00;;;12.90;99.90;;;;;;4990911;28;20642;-76
2021/12/28 11:55:13;;;;;;;1.30;0.70;;;12.90;99.90;;;;;;4991710;28;20174;-76
2021/12/28 11:57:49;;;;;;;1.20;0.60;;;12.90;99.90;;;;;;4990800;28;20207;-75
2021/12/28 12:00:17;;;;;;;1.25;0.80;;;12.90;99.90;;;;;;4991332;28;21170;-76
2021/12/28 12:02:53;;;;;;;1.20;0.67;;;12.90;99.90;;;;;;4990582;28;20172;-76
2021/12/28 12:05:24;;;;;;;1.23;0.70;;;13.00;99.90;;;;;;4974467;28;20984;-75
2021/12/28 12:08:14;;;;;;;1.00;0.60;;;13.00;99.90;;;;;;4971858;28;20603;-75
2021/12/28 12:10:46;;;;;;;1.40;0.60;;;13.00;99.90;;;;;;4965456;28;20222;-76
2021/12/28 12:13:30;;;;;;;1.20;0.60;;;13.00;99.90;;;;;;4971405;28;20579;-76
2021/12/28 12:16:02;;;;;;;1.60;0.60;;;12.90;99.90;;;;;;4970609;28;20574;-76
2021/12/28 12:18:32;;;;;;;2.08;0.70;;;12.90;99.90;;;;;;4971769;28;20587;-76
2021/12/28 12:21:01;;;;;;;1.30;0.60;;;12.90;99.90;;;;;;4971381;28;20211;-75
2021/12/28 12:23:29;;;;;;;1.35;0.70;;;12.80;99.90;;;;;;4973800;28;20583;-75
2021/12/28 12:26:01;;;;;;;1.25;0.70;;;12.80;99.90;;;;;;4989726;28;20210;-75
2021/12/28 12:28:36;;;;;;;1.00;0.60;;;12.90;99.90;;;;;;4975217;28;20180;-75
2021/12/28 12:31:05;;;;;;;1.90;0.60;;;12.90;99.90;;;;;;4973283;28;20195;-75
2021/12/28 12:33:49;;;;;;;1.20;0.47;;;12.90;99.90;;;;;;4973687;28;20172;-75
2021/12/28 12:36:29;;;;;;;3.07;0.90;;;12.90;99.90;;;;;;4974408;28;20582;-75
2021/12/28 12:38:55;;;;;;;2.13;0.80;;;12.90;99.90;;;;;;4989894;28;20669;-75
2021/12/28 12:41:37;;;;;;;4.40;1.20;;;12.90;99.90;;;;;;4975049;28;20282;-75
2021/12/28 12:44:09;;;;;;;4.57;1.10;;;12.80;99.90;;;;;;4979230;28;21178;-75
2021/12/28 12:46:38;;;;;;;4.57;1.00;;;12.80;99.90;;;;;;4989491;28;20583;-75
2021/12/28 12:49:08;;;;;;;10.07;1.40;;;12.80;99.90;;;;;;4974695;28;20167;-75
2021/12/28 12:51:44;;;;;;;4.70;2.17;;;12.80;99.90;;;;;;4973496;28;20227;-75
2021/12/28 12:54:29;;;;;;;5.88;1.75;;;12.80;99.90;;;;;;4974152;28;20715;-74
2021/12/28 12:56:55;;;;;;;6.05;1.30;;;12.70;99.90;;;;;;4970012;28;20184;-74